createdAt,value
2023-04-16T00:02:12.819Z,101675.88
2023-04-16T00:04:40.911Z,101672.80
2023-04-16T00:07:09.319Z,101681.29
2023-04-16T00:09:37.434Z,101685.79
2023-04-16T00:12:05.628Z,101679.75
2023-04-16T00:14:32.819Z,101683.63
2023-04-16T00:16:59.778Z,101678.63
2023-04-16T00:19:26.921Z,101679.67
2023-04-16T00:21:53.816Z,101676.77
2023-04-16T00:24:21.403Z,101681.15
2023-04-16T00:26:48.424Z,101672.70
2023-04-16T00:29:15.611Z,101678.93
2023-04-16T00:31:42.398Z,101673.84
2023-04-16T00:34:09.360Z,101676.21
2023-04-16T00:36:37.114Z,101677.18
2023-04-16T00:39:04.112Z,101686.54
2023-04-16T00:41:31.777Z,101675.66
2023-04-16T00:43:58.643Z,101678.14
2023-04-16T00:46:25.486Z,101673.96
2023-04-16T00:48:53.110Z,101681.43
2023-04-16T00:51:21.112Z,101673.58
2023-04-16T00:53:48.064Z,101676.67
2023-04-16T00:56:16.581Z,101676.49
2023-04-16T00:58:44.577Z,101678.63
2023-04-16T01:01:15.844Z,101679.42
2023-04-16T01:03:45.925Z,101676.83
2023-04-16T01:06:13.753Z,101672.14
2023-04-16T01:08:40.721Z,101674.92
2023-04-16T01:11:07.820Z,101677.85
2023-04-16T01:13:38.608Z,101676.98
2023-04-16T01:16:11.356Z,101671.80
2023-04-16T01:18:38.734Z,101666.13
2023-04-16T01:21:06.098Z,101665.45
2023-04-16T01:23:33.530Z,101661.96
2023-04-16T01:26:00.533Z,101660.02
2023-04-16T01:28:28.661Z,101658.70
2023-04-16T01:30:55.654Z,101646.34
2023-04-16T01:33:43.346Z,101646.84
2023-04-16T01:36:11.099Z,101647.61
2023-04-16T01:38:39.319Z,101644.41
2023-04-16T01:41:06.535Z,101649.90
2023-04-16T01:43:33.474Z,101650.70
2023-04-16T01:46:18.242Z,101649.73
2023-04-16T01:48:45.288Z,101652.26
2023-04-16T01:51:13.163Z,101647.49
2023-04-16T01:55:11.410Z,101643.73
2023-04-16T01:57:38.962Z,101639.52
2023-04-16T02:00:08.101Z,101637.69
2023-04-16T02:02:46.576Z,101639.29
2023-04-16T02:05:15.399Z,101641.52
2023-04-16T02:07:42.809Z,101647.91
2023-04-16T02:10:10.661Z,101650.46
2023-04-16T02:12:40.632Z,101643.45
2023-04-16T02:15:08.185Z,101638.16
2023-04-16T02:17:36.092Z,101637.35
2023-04-16T02:20:12.399Z,101632.05
2023-04-16T02:22:44.314Z,101635.47
2023-04-16T02:25:13.768Z,101634.80
2023-04-16T02:27:41.338Z,101638.02
2023-04-16T02:30:20.526Z,101639.67
2023-04-16T02:32:47.462Z,101639.05
2023-04-16T02:35:14.485Z,101642.75
2023-04-16T02:37:41.232Z,101647.11
2023-04-16T02:40:10.926Z,101648.36
2023-04-16T02:42:41.816Z,101644.73
2023-04-16T02:45:09.695Z,101649.42
2023-04-16T02:47:37.217Z,101653.12
2023-04-16T02:50:04.353Z,101659.61
2023-04-16T02:52:32.369Z,101672.63
2023-04-16T02:55:00.292Z,101671.08
2023-04-16T02:57:27.042Z,101669.19
2023-04-16T02:59:54.253Z,101670.86
2023-04-16T03:02:21.181Z,101683.30
2023-04-16T03:04:48.171Z,101691.21
2023-04-16T03:07:15.357Z,101689.71
2023-04-16T03:09:42.747Z,101690.19
2023-04-16T03:12:10.453Z,101692.72
2023-04-16T03:14:37.384Z,101695.86
2023-04-16T03:17:04.134Z,101693.46
2023-04-16T03:19:30.920Z,101695.08
2023-04-16T03:21:57.718Z,101690.41
2023-04-16T03:24:24.577Z,101699.05
2023-04-16T03:26:51.362Z,101695.39
2023-04-16T03:29:18.648Z,101702.80
2023-04-16T03:31:45.769Z,101706.41
2023-04-16T03:34:12.535Z,101715.98
2023-04-16T03:36:41.322Z,101714.80
2023-04-16T03:39:08.221Z,101715.31
2023-04-16T03:41:37.222Z,101717.88
2023-04-16T03:44:04.619Z,101718.12
2023-04-16T03:58:35.556Z,101729.55
2023-04-16T04:01:02.601Z,101738.01
2023-04-16T04:03:30.893Z,101741.42
2023-04-16T04:05:58.288Z,101746.63
2023-04-16T04:08:29.282Z,101740.40
2023-04-16T04:10:56.745Z,101740.61
2023-04-16T04:13:25.216Z,101739.10
2023-04-16T04:15:52.587Z,101743.49
2023-04-16T04:18:21.472Z,101746.59
2023-04-16T04:20:48.254Z,101750.10
2023-04-16T04:23:17.606Z,101746.48
2023-04-16T04:25:45.603Z,101749.92
2023-04-16T04:28:12.682Z,101751.48
2023-04-16T04:30:40.376Z,101753.10
2023-04-16T04:33:07.212Z,101753.28
2023-04-16T04:35:36.028Z,101754.09
2023-04-16T04:38:03.243Z,101751.76
2023-04-16T04:40:36.766Z,101749.22
2023-04-16T04:43:03.962Z,101759.58
2023-04-16T04:45:32.473Z,101757.52
2023-04-16T04:48:00.177Z,101761.55
2023-04-16T04:50:27.114Z,101753.14
2023-04-16T04:52:54.150Z,101750.59
2023-04-16T04:55:22.074Z,101756.05
2023-04-16T04:57:49.533Z,101753.34
2023-04-16T05:00:16.582Z,101754.36
2023-04-16T05:02:55.715Z,101759.59
2023-04-16T05:05:22.627Z,101758.27
2023-04-16T05:07:49.509Z,101761.34
2023-04-16T05:10:18.689Z,101761.17
2023-04-16T05:12:50.160Z,101765.60
2023-04-16T05:15:17.400Z,101765.00
2023-04-16T05:17:46.019Z,101768.60
2023-04-16T05:20:13.005Z,101772.86
2023-04-16T05:22:40.384Z,101771.88
2023-04-16T05:25:07.492Z,101771.14
2023-04-16T05:27:35.778Z,101771.32
2023-04-16T05:30:02.975Z,101770.45
2023-04-16T05:32:36.340Z,101769.40
2023-04-16T05:35:09.145Z,101767.10
2023-04-16T05:37:36.261Z,101763.57
2023-04-16T05:40:03.449Z,101766.48
2023-04-16T05:42:30.906Z,101763.64
2023-04-16T05:44:59.680Z,101768.19
2023-04-16T05:47:26.696Z,101770.23
2023-04-16T05:49:53.792Z,101775.48
2023-04-16T05:52:20.580Z,101770.40
2023-04-16T05:54:47.273Z,101774.95
2023-04-16T05:57:14.428Z,101775.92
2023-04-16T05:59:41.260Z,101776.14
2023-04-16T06:02:08.149Z,101777.17
2023-04-16T06:04:37.340Z,101774.02
2023-04-16T06:07:04.566Z,101774.45
2023-04-16T06:09:33.124Z,101777.02
2023-04-16T06:12:00.682Z,101778.77
2023-04-16T06:14:27.583Z,101779.73
2023-04-16T06:16:55.842Z,101777.33
2023-04-16T06:20:13.998Z,101780.45
2023-04-16T06:23:59.743Z,101775.32
2023-04-16T06:26:50.333Z,101782.52
2023-04-16T06:29:17.218Z,101787.51
2023-04-16T06:31:44.303Z,101784.46
2023-04-16T06:35:11.447Z,101789.46
2023-04-16T06:37:39.721Z,101784.51
2023-04-16T06:40:08.181Z,101784.99
2023-04-16T06:42:37.841Z,101784.02
2023-04-16T06:45:06.073Z,101781.41
2023-04-16T06:47:33.480Z,101780.48
2023-04-16T06:50:00.250Z,101783.45
2023-04-16T06:52:29.701Z,101786.74
2023-04-16T06:54:56.714Z,101781.52
2023-04-16T06:57:23.820Z,101787.69
2023-04-16T06:59:50.813Z,101781.03
2023-04-16T07:02:17.864Z,101782.13
2023-04-16T07:04:44.960Z,101780.02
2023-04-16T07:07:12.168Z,101775.86
2023-04-16T07:09:39.954Z,101775.23
2023-04-16T07:12:07.575Z,101772.68
2023-04-16T07:14:35.251Z,101784.61
2023-04-16T07:17:02.170Z,101786.20
2023-04-16T07:19:32.080Z,101782.10
2023-04-16T07:21:59.715Z,101781.13
2023-04-16T07:24:28.366Z,101783.38
2023-04-16T07:26:57.289Z,101782.48
2023-04-16T07:29:24.533Z,101785.59
2023-04-16T07:31:51.599Z,101781.78
2023-04-16T07:34:18.870Z,101772.52
2023-04-16T07:36:46.101Z,101771.80
2023-04-16T07:39:13.329Z,101769.10
2023-04-16T07:41:40.869Z,101760.21
2023-04-16T07:44:09.106Z,101759.21
2023-04-16T07:46:46.328Z,101755.73
2023-04-16T07:49:14.434Z,101750.50
2023-04-16T07:51:41.258Z,101744.92
2023-04-16T07:54:08.405Z,101753.10
2023-04-16T07:56:35.551Z,101738.60
2023-04-16T07:59:18.283Z,101743.17
2023-04-16T08:01:49.121Z,101738.61
2023-04-16T08:04:22.540Z,101729.34
2023-04-16T08:06:51.190Z,101735.86
2023-04-16T08:09:28.406Z,101742.56
2023-04-16T08:11:55.927Z,101743.58
2023-04-16T08:14:23.127Z,101741.90
2023-04-16T08:16:49.957Z,101749.84
2023-04-16T08:19:16.925Z,101747.42
2023-04-16T08:21:43.816Z,101749.11
2023-04-16T08:24:13.135Z,101750.77
2023-04-16T08:26:40.363Z,101752.88
2023-04-16T08:29:07.442Z,101746.48
2023-04-16T08:31:34.983Z,101737.45
2023-04-16T08:34:03.332Z,101736.37
2023-04-16T08:36:31.591Z,101732.48
2023-04-16T08:38:58.498Z,101741.61
2023-04-16T08:41:32.632Z,101740.44
2023-04-16T08:44:01.809Z,101734.85
2023-04-16T08:46:29.087Z,101722.99
2023-04-16T08:48:56.036Z,101723.91
2023-04-16T08:51:23.637Z,101718.79
2023-04-16T08:53:59.927Z,101719.05
2023-04-16T08:56:26.778Z,101716.21
2023-04-16T08:58:57.928Z,101716.06
2023-04-16T09:01:26.108Z,101710.42
2023-04-16T09:03:53.217Z,101715.48
2023-04-16T09:06:37.459Z,101711.90
2023-04-16T09:09:08.432Z,101715.42
2023-04-16T09:11:35.819Z,101716.45
2023-04-16T09:14:02.962Z,101714.25
2023-04-16T09:16:33.290Z,101708.52
2023-04-16T09:19:00.505Z,101724.79
2023-04-16T09:21:27.497Z,101723.52
2023-04-16T09:23:54.284Z,101718.67
2023-04-16T09:26:21.356Z,101717.14
2023-04-16T09:28:50.184Z,101713.89
2023-04-16T09:31:17.919Z,101707.79
2023-04-16T09:34:14.218Z,101706.36
2023-04-16T09:36:41.342Z,101694.23
2023-04-16T09:39:09.165Z,101702.58
2023-04-16T09:41:38.905Z,101703.54
2023-04-16T09:44:06.233Z,101702.14
2023-04-16T09:46:42.848Z,101700.59
2023-04-16T09:49:17.116Z,101706.33
2023-04-16T09:51:47.446Z,101708.61
2023-04-16T09:54:16.486Z,101701.44
2023-04-16T09:56:44.321Z,101699.86
2023-04-16T09:59:18.654Z,101699.57
2023-04-16T10:01:46.575Z,101707.14
2023-04-16T10:04:13.724Z,101703.15
2023-04-16T10:06:40.618Z,101707.04
2023-04-16T10:09:08.850Z,101704.77
2023-04-16T10:11:36.362Z,101705.86
2023-04-16T10:14:03.582Z,101702.59
2023-04-16T10:16:31.830Z,101708.52
2023-04-16T10:18:59.114Z,101709.20
2023-04-16T10:21:33.030Z,101710.14
2023-04-16T10:23:59.851Z,101716.33
2023-04-16T10:26:26.834Z,101707.59
2023-04-16T10:28:54.993Z,101705.81
2023-04-16T10:31:21.971Z,101697.52
2023-04-16T10:33:48.894Z,101702.68
2023-04-16T10:36:18.105Z,101699.92
2023-04-16T10:38:54.056Z,101698.47
2023-04-16T10:41:21.041Z,101697.02
2023-04-16T10:43:51.245Z,101704.31
2023-04-16T10:46:26.214Z,101699.16
2023-04-16T10:48:53.925Z,101693.66
2023-04-16T10:51:37.428Z,101688.46
2023-04-16T10:54:28.382Z,101691.66
2023-04-16T10:56:56.844Z,101691.83
2023-04-16T10:59:24.394Z,101688.20
2023-04-16T11:01:54.472Z,101683.31
2023-04-16T11:04:21.951Z,101684.06
2023-04-16T11:07:14.554Z,101676.75
2023-04-16T11:09:47.002Z,101684.45
2023-04-16T11:12:28.288Z,101677.64
2023-04-16T11:15:05.780Z,101668.41
2023-04-16T11:17:39.417Z,101669.04
2023-04-16T11:20:19.558Z,101668.25
2023-04-16T11:22:53.347Z,101664.49
2023-04-16T11:25:21.985Z,101664.08
2023-04-16T11:27:49.453Z,101662.55
2023-04-16T11:30:16.425Z,101656.59
2023-04-16T11:32:43.608Z,101655.98
2023-04-16T11:35:18.701Z,101663.98
2023-04-16T11:37:47.817Z,101665.67
2023-04-16T11:40:15.512Z,101661.91
2023-04-16T11:42:43.932Z,101657.29
2023-04-16T11:45:13.562Z,101651.67
2023-04-16T11:47:51.407Z,101647.35
2023-04-16T11:50:21.361Z,101650.66
2023-04-16T11:52:49.204Z,101645.89
2023-04-16T11:55:16.262Z,101640.30
2023-04-16T11:57:45.930Z,101640.45
2023-04-16T12:00:13.531Z,101638.02
2023-04-16T12:02:51.164Z,101633.80
2023-04-16T12:05:38.489Z,101634.58
2023-04-16T12:08:11.657Z,101631.98
2023-04-16T12:10:59.151Z,101633.88
2023-04-16T12:13:26.740Z,101623.06
2023-04-16T12:15:57.595Z,101628.01
2023-04-16T12:18:28.159Z,101620.88
2023-04-16T12:20:55.564Z,101618.70
2023-04-16T12:23:23.865Z,101616.19
2023-04-16T12:25:51.637Z,101619.11
2023-04-16T12:28:36.208Z,101619.30
2023-04-16T12:31:03.867Z,101619.13
2023-04-16T12:33:30.794Z,101612.83
2023-04-16T12:35:57.763Z,101608.77
2023-04-16T12:38:25.809Z,101615.40
2023-04-16T12:40:56.164Z,101605.39
2023-04-16T12:43:23.039Z,101608.65
2023-04-16T12:45:50.581Z,101602.38
2023-04-16T12:48:18.381Z,101603.55
2023-04-16T12:50:45.592Z,101601.41
2023-04-16T12:53:12.545Z,101604.83
2023-04-16T12:55:39.990Z,101607.06
2023-04-16T12:58:08.950Z,101601.66
2023-04-16T13:00:36.974Z,101608.31
2023-04-16T13:03:04.126Z,101604.58
2023-04-16T13:05:31.041Z,101601.05
2023-04-16T13:07:58.032Z,101598.65
2023-04-16T13:10:27.533Z,101596.05
2023-04-16T13:12:54.481Z,101593.99
2023-04-16T13:15:27.124Z,101592.78
2023-04-16T13:17:53.836Z,101594.09
2023-04-16T13:20:22.491Z,101590.16
2023-04-16T13:22:51.098Z,101592.61
2023-04-16T13:25:19.440Z,101586.05
2023-04-16T13:27:46.222Z,101583.39
2023-04-16T13:30:13.670Z,101581.85
2023-04-16T13:32:41.044Z,101586.99
2023-04-16T13:35:10.134Z,101585.82
2023-04-16T13:37:38.704Z,101589.30
2023-04-16T13:40:09.016Z,101582.93
2023-04-16T13:42:40.545Z,101581.98
2023-04-16T13:45:08.968Z,101585.33
2023-04-16T13:47:44.294Z,101584.90
2023-04-16T13:50:11.462Z,101581.77
2023-04-16T13:52:41.157Z,101579.88
2023-04-16T13:55:09.534Z,101582.33
2023-04-16T13:57:37.075Z,101585.41
2023-04-16T14:00:04.373Z,101579.21
2023-04-16T14:02:32.837Z,101586.73
2023-04-16T14:04:59.861Z,101576.56
2023-04-16T14:07:29.717Z,101581.06
2023-04-16T14:09:57.835Z,101582.70
2023-04-16T14:12:27.637Z,101580.26
2023-04-16T14:14:57.790Z,101586.38
2023-04-16T14:17:25.041Z,101583.10
2023-04-16T14:19:52.100Z,101585.35
2023-04-16T14:22:19.052Z,101581.73
2023-04-16T14:24:45.927Z,101584.05
2023-04-16T14:27:13.218Z,101582.17
2023-04-16T14:29:43.243Z,101583.13
2023-04-16T14:32:10.266Z,101576.50
2023-04-16T14:34:37.810Z,101576.88
2023-04-16T14:37:06.301Z,101579.48
2023-04-16T14:39:33.258Z,101580.41
2023-04-16T14:42:00.157Z,101580.15
2023-04-16T14:44:30.545Z,101583.39
2023-04-16T14:46:57.445Z,101582.71
2023-04-16T14:49:25.584Z,101585.23
2023-04-16T14:51:52.507Z,101581.64
2023-04-16T14:54:19.598Z,101589.61
2023-04-16T14:56:50.355Z,101586.41
2023-04-16T14:59:17.376Z,101590.95
2023-04-16T15:01:44.813Z,101591.50
2023-04-16T15:04:15.663Z,101597.21
2023-04-16T15:06:44.269Z,101596.21
2023-04-16T15:09:11.198Z,101595.71
2023-04-16T15:11:39.260Z,101594.38
2023-04-16T15:14:09.172Z,101598.40
2023-04-16T15:16:36.607Z,101591.85
2023-04-16T15:19:07.485Z,101594.75
2023-04-16T15:21:37.355Z,101599.11
2023-04-16T15:24:04.854Z,101596.14
2023-04-16T15:26:31.744Z,101591.97
2023-04-16T15:29:03.942Z,101591.52
2023-04-16T15:31:31.498Z,101589.42
2023-04-16T15:34:01.102Z,101593.95
2023-04-16T15:36:28.800Z,101591.58
2023-04-16T15:38:55.688Z,101590.42
2023-04-16T15:41:23.030Z,101597.06
2023-04-16T15:43:51.271Z,101593.87
2023-04-16T15:46:18.973Z,101594.28
2023-04-16T15:48:45.882Z,101595.02
2023-04-16T15:51:19.357Z,101596.84
2023-04-16T15:53:49.520Z,101601.70
2023-04-16T15:56:19.582Z,101601.78
2023-04-16T15:58:48.301Z,101600.11
2023-04-16T16:01:16.253Z,101605.33
2023-04-16T16:04:56.001Z,101612.36
2023-04-16T16:07:25.452Z,101610.27
2023-04-16T16:09:55.017Z,101613.13
2023-04-16T16:12:26.697Z,101613.63
2023-04-16T16:14:56.787Z,101612.71
2023-04-16T16:17:34.312Z,101617.06
2023-04-16T16:20:04.651Z,101618.96
2023-04-16T16:22:35.989Z,101619.61
2023-04-16T16:25:06.111Z,101627.66
2023-04-16T16:27:36.638Z,101628.58
2023-04-16T16:30:09.864Z,101627.49
2023-04-16T16:32:41.281Z,101630.98
2023-04-16T16:35:12.564Z,101632.65
2023-04-16T16:37:42.726Z,101629.20
2023-04-16T16:40:13.910Z,101633.98
2023-04-16T16:42:45.904Z,101634.05
2023-04-16T16:45:17.145Z,101632.95
2023-04-16T16:47:45.742Z,101634.60
2023-04-16T16:50:16.946Z,101635.11
2023-04-16T16:52:46.782Z,101638.39
2023-04-16T16:57:44.479Z,101645.47
2023-04-16T17:00:16.365Z,101647.27
2023-04-16T17:02:46.965Z,101649.73
2023-04-16T17:05:16.086Z,101649.56
2023-04-16T17:07:46.104Z,101652.35
2023-04-16T17:10:21.138Z,101653.91
2023-04-16T17:13:09.964Z,101652.16
2023-04-16T17:15:38.473Z,101654.97
2023-04-16T17:18:06.754Z,101657.84
2023-04-16T17:20:35.506Z,101659.14
2023-04-16T17:23:04.273Z,101659.64
2023-04-16T17:25:32.398Z,101659.34
2023-04-16T17:28:01.636Z,101664.97
2023-04-16T17:30:31.593Z,101665.70
2023-04-16T17:33:05.128Z,101669.55
2023-04-16T17:35:36.587Z,101670.65
2023-04-16T17:38:08.023Z,101672.65
2023-04-16T17:40:38.749Z,101671.77
2023-04-16T17:43:07.073Z,101675.29
2023-04-16T17:45:39.599Z,101678.66
2023-04-16T17:48:08.245Z,101677.44
2023-04-16T17:50:39.346Z,101680.59
2023-04-16T17:53:11.258Z,101674.82
2023-04-16T17:55:42.836Z,101670.42
2023-04-16T17:58:11.541Z,101668.25
2023-04-16T18:00:46.042Z,101670.00
2023-04-16T18:03:15.123Z,101669.95
2023-04-16T18:05:43.891Z,101670.09
2023-04-16T18:08:12.694Z,101670.11
2023-04-16T18:10:40.992Z,101670.12
2023-04-16T18:13:09.256Z,101672.69
2023-04-16T18:15:41.079Z,101673.57
2023-04-16T18:18:10.122Z,101675.09
2023-04-16T18:20:39.051Z,101677.67
2023-04-16T18:23:07.342Z,101683.56
2023-04-16T18:25:36.385Z,101681.92
2023-04-16T18:28:06.380Z,101683.58
2023-04-16T18:30:40.349Z,101683.33
2023-04-16T18:33:33.438Z,101680.30
2023-04-16T18:36:03.747Z,101678.15
2023-04-16T18:39:02.487Z,101677.98
2023-04-16T18:41:57.299Z,101678.83
2023-04-16T18:44:38.908Z,101680.89
2023-04-16T18:47:07.670Z,101678.27
2023-04-16T18:49:43.860Z,101683.98
2023-04-16T18:52:23.921Z,101681.85
2023-04-16T18:54:55.192Z,101683.42
2023-04-16T18:57:23.706Z,101681.85
2023-04-16T18:59:52.688Z,101683.39
2023-04-16T19:02:23.552Z,101682.14
2023-04-16T19:04:52.281Z,101678.80
2023-04-16T19:07:20.716Z,101679.98
2023-04-16T19:09:50.945Z,101678.56
2023-04-16T19:12:19.982Z,101676.33
2023-04-16T19:14:48.275Z,101677.16
2023-04-16T19:17:16.538Z,101677.48
2023-04-16T19:19:44.887Z,101676.23
2023-04-16T19:22:13.112Z,101675.67
2023-04-16T19:24:41.641Z,101671.67
2023-04-16T19:27:09.888Z,101670.80
2023-04-16T19:29:38.469Z,101670.06
2023-04-16T19:32:06.718Z,101671.26
2023-04-16T19:34:35.439Z,101673.35
2023-04-16T19:37:03.687Z,101673.85
2023-04-16T19:39:33.505Z,101675.38
2023-04-16T19:42:02.132Z,101670.81
2023-04-16T19:44:30.494Z,101669.40
2023-04-16T19:46:59.358Z,101671.81
2023-04-16T19:49:35.139Z,101673.37
2023-04-16T19:52:03.294Z,101673.52
2023-04-16T19:54:33.806Z,101677.66
2023-04-16T19:57:02.715Z,101678.13
2023-04-16T19:59:32.414Z,101678.60
2023-04-16T20:02:01.247Z,101676.98
2023-04-16T20:04:29.718Z,101683.86
2023-04-16T20:07:00.925Z,101682.76
2023-04-16T20:09:29.328Z,101686.71
2023-04-16T20:11:58.210Z,101684.41
2023-04-16T20:14:27.651Z,101684.18
2023-04-16T20:16:56.309Z,101683.63
2023-04-16T20:19:31.717Z,101681.66
2023-04-16T20:22:00.269Z,101685.80
2023-04-16T20:24:31.606Z,101688.42
2023-04-16T20:26:59.910Z,101691.57
2023-04-16T20:29:35.593Z,101682.10
2023-04-16T20:32:04.276Z,101687.16
2023-04-16T20:34:38.129Z,101694.44
2023-04-16T20:37:06.429Z,101696.34
2023-04-16T20:39:36.420Z,101693.31
2023-04-16T20:42:10.322Z,101701.46
2023-04-16T20:44:42.403Z,101701.09
2023-04-16T20:47:11.817Z,101706.44
2023-04-16T20:49:40.423Z,101702.92
2023-04-16T20:52:08.883Z,101704.77
2023-04-16T20:54:38.019Z,101704.73
2023-04-16T20:57:06.572Z,101702.42
2023-04-16T20:59:37.150Z,101703.95
2023-04-16T21:02:06.093Z,101702.85
2023-04-16T21:04:34.582Z,101705.41
2023-04-16T21:07:04.511Z,101696.15
2023-04-16T21:09:36.639Z,101696.80
2023-04-16T21:12:05.121Z,101697.95
2023-04-16T21:14:33.555Z,101696.17
2023-04-16T21:17:01.887Z,101690.03
2023-04-16T21:19:31.706Z,101687.89
2023-04-16T21:22:00.072Z,101688.89
2023-04-16T21:24:28.631Z,101687.42
2023-04-16T21:26:57.445Z,101682.12
2023-04-16T21:29:25.750Z,101680.15
2023-04-16T21:31:54.375Z,101677.14
2023-04-16T21:34:22.628Z,101676.71
2023-04-16T21:36:51.101Z,101671.27
2023-04-16T21:39:21.848Z,101673.97
2023-04-16T21:41:50.102Z,101669.55
2023-04-16T21:44:18.332Z,101671.75
2023-04-16T21:46:46.729Z,101667.47
2023-04-16T21:49:15.232Z,101666.70
2023-04-16T21:51:46.388Z,101665.56
2023-04-16T21:54:18.014Z,101662.90
2023-04-16T21:56:46.394Z,101660.02
2023-04-16T21:59:14.532Z,101662.89
2023-04-16T22:01:42.815Z,101657.92
2023-04-16T22:04:12.501Z,101652.96
2023-04-16T22:06:41.853Z,101658.11
2023-04-16T22:09:10.262Z,101659.45
2023-04-16T22:11:38.831Z,101656.25
2023-04-16T22:14:08.382Z,101660.33
2023-04-16T22:16:42.044Z,101656.97
2023-04-16T22:19:10.999Z,101661.02
2023-04-16T22:21:39.764Z,101661.28
2023-04-16T22:24:07.930Z,101658.41
2023-04-16T22:26:36.547Z,101655.00
2023-04-16T22:29:04.787Z,101652.83
2023-04-16T22:31:33.099Z,101652.23
2023-04-16T22:34:03.316Z,101647.50
2023-04-16T22:36:32.903Z,101641.89
2023-04-16T22:39:01.033Z,101638.16
2023-04-16T22:41:29.344Z,101635.83
2023-04-16T22:43:57.572Z,101632.42
2023-04-16T22:46:26.658Z,101633.23
2023-04-16T22:48:55.163Z,101631.92
2023-04-16T22:51:24.594Z,101631.48
2023-04-16T22:53:52.845Z,101626.52
2023-04-16T22:56:21.507Z,101629.24
2023-04-16T22:58:49.817Z,101623.45
2023-04-16T23:01:18.279Z,101618.67
2023-04-16T23:03:47.041Z,101621.59
2023-04-16T23:06:15.831Z,101620.13
2023-04-16T23:08:44.728Z,101612.07
2023-04-16T23:11:12.946Z,101616.49
2023-04-16T23:13:42.916Z,101618.00
2023-04-16T23:16:11.638Z,101621.58
2023-04-16T23:18:40.049Z,101620.46
2023-04-16T23:21:08.162Z,101620.91
2023-04-16T23:23:36.836Z,101623.64
2023-04-16T23:26:05.328Z,101618.02
2023-04-16T23:28:33.668Z,101621.20
2023-04-16T23:31:01.910Z,101616.43
2023-04-16T23:33:30.243Z,101620.20
2023-04-16T23:35:58.484Z,101616.88
2023-04-16T23:38:26.689Z,101620.98
2023-04-16T23:40:54.986Z,101616.73
2023-04-16T23:43:23.782Z,101620.65
2023-04-16T23:45:51.992Z,101620.89
2023-04-16T23:48:20.590Z,101621.32
2023-04-16T23:50:50.877Z,101625.20
2023-04-16T23:53:19.936Z,101627.02
2023-04-16T23:55:48.058Z,101629.70
2023-04-16T23:58:16.273Z,101632.92
